Time;durP1;ratioP1;P1;durP2;ratioP2;P2;SDS_P1;SDS_P2;PMS_P1;PMS_P2;Temp;Humidity;BMP_temperature;BMP_pressure;BME280_temperature;BME280_humidity;BME280_pressure;Samples;Min_cycle;Max_cycle;Signal;HPM_P1;HPM_P2
2022/01/24 00:01:45;;;;;;;14.55;9.60;;;;;;;-4.59;79.24;98053.37;1688442;85;21144;-79
2022/01/24 00:04:11;;;;;;;12.40;8.68;;;;;;;-4.55;79.27;98044.37;1688226;85;21005;-79
2022/01/24 00:06:37;;;;;;;12.30;9.10;;;;;;;-4.52;79.31;98039.63;1688413;85;20985;-79
2022/01/24 00:09:04;;;;;;;15.00;9.63;;;;;;;-4.45;79.37;98046.16;1688436;85;21352;-80
2022/01/24 00:11:42;;;;;;;11.88;9.10;;;;;;;-4.39;79.29;98047.25;1688621;85;20973;-80
2022/01/24 00:27:09;;;;;;;18.98;11.65;;;;;;;-4.32;79.26;98051.67;1717159;83;21015;-79
2022/01/24 00:29:34;;;;;;;18.12;12.40;;;;;;;-4.34;79.18;98049.19;1717101;83;20970;-79
2022/01/24 00:32:02;;;;;;;21.87;14.23;;;;;;;-4.35;79.23;98051.78;1717000;83;21325;-79
2022/01/24 00:34:27;;;;;;;21.23;13.60;;;;;;;-4.34;79.28;98049.63;1714079;83;20963;-79
2022/01/24 00:36:53;;;;;;;17.52;13.10;;;;;;;-4.32;79.38;98046.60;1716893;83;21376;-79
2022/01/24 00:39:20;;;;;;;19.30;12.45;;;;;;;-4.31;79.48;98044.01;1716701;83;20939;-79
2022/01/24 00:42:49;;;;;;;21.02;13.45;;;;;;;-4.26;79.62;98043.85;1717210;83;20974;-79
2022/01/24 00:46:50;;;;;;;17.60;11.53;;;;;;;-4.22;79.75;98043.34;1638896;84;21096;-79
2022/01/24 00:49:25;;;;;;;19.57;12.15;;;;;;;-4.22;79.86;98048.41;1695772;84;21517;-79
2022/01/24 00:57:03;;;;;;;16.05;11.68;;;;;;;-4.20;80.12;98046.65;1697381;84;21079;-79
2022/01/24 00:59:29;;;;;;;18.50;12.60;;;;;;;-4.16;80.27;98044.39;1697151;84;20999;-79
2022/01/24 01:01:55;;;;;;;16.32;10.90;;;;;;;-4.14;80.34;98046.44;1696802;84;20991;-79
2022/01/24 01:04:26;;;;;;;17.30;11.83;;;;;;;-4.11;80.23;98047.59;1714233;82;21438;-79
2022/01/24 01:06:50;;;;;;;21.55;12.85;;;;;;;-4.10;80.25;98047.98;1696788;84;21019;-79
2022/01/24 01:20:18;;;;;;;18.40;13.48;;;;;;;-4.03;79.81;98039.30;1691090;84;21028;-79
2022/01/24 01:22:41;;;;;;;18.90;12.78;;;;;;;-4.09;79.66;98044.13;1679696;85;21013;-79
2022/01/24 01:25:07;;;;;;;17.73;11.70;;;;;;;-4.14;79.52;98040.09;1660323;86;21059;-79
2022/01/24 01:27:39;;;;;;;15.70;11.20;;;;;;;-4.22;79.20;98038.26;1669125;86;21536;-79
2022/01/24 01:30:07;;;;;;;16.45;11.05;;;;;;;-4.28;79.24;98034.19;1668595;86;20972;-80
2022/01/24 01:35:20;;;;;;;14.90;10.63;;;;;;;-4.41;78.79;98034.20;1668769;86;20984;-80
2022/01/24 01:56:06;;;;;;;14.75;10.35;;;;;;;-4.99;78.12;98020.37;1680791;85;21025;-80
2022/01/24 01:58:32;;;;;;;13.48;9.63;;;;;;;-5.06;78.13;98016.78;1680920;85;21057;-80
2022/01/24 02:00:59;;;;;;;11.93;10.23;;;;;;;-5.12;78.09;98019.06;1681329;85;21018;-80
2022/01/24 02:03:27;;;;;;;14.83;10.48;;;;;;;-5.20;77.94;98020.58;1681099;85;21005;-80
2022/01/24 02:05:53;;;;;;;14.18;9.20;;;;;;;-5.28;78.02;98008.99;1641196;87;21450;-80
2022/01/24 02:08:27;;;;;;;17.15;11.25;;;;;;;-5.36;77.83;98009.23;1652331;87;21042;-80
2022/01/24 02:10:53;;;;;;;15.53;9.90;;;;;;;-5.42;77.99;98020.78;1680940;85;21395;-80
2022/01/24 02:13:19;;;;;;;13.93;9.73;;;;;;;-5.49;78.00;98022.67;1681357;85;21002;-81
2022/01/24 02:15:57;;;;;;;15.08;10.23;;;;;;;-5.54;78.02;98022.39;1681418;85;20998;-81
2022/01/24 02:18:30;;;;;;;16.87;11.28;;;;;;;-5.61;78.15;98031.05;1683201;82;21063;-80
2022/01/24 02:21:12;;;;;;;14.38;10.25;;;;;;;-5.69;78.17;98030.00;1683979;84;21318;-80
2022/01/24 02:23:45;;;;;;;15.23;10.78;;;;;;;-5.76;78.23;98037.35;1692149;84;21428;-79
2022/01/24 02:26:19;;;;;;;15.08;10.58;;;;;;;-5.82;78.13;98043.86;1709234;84;21073;-79
2022/01/24 02:28:56;;;;;;;15.70;10.28;;;;;;;-5.87;78.15;98050.72;1709476;84;21017;-79
2022/01/24 02:33:57;;;;;;;18.00;11.57;;;;;;;-5.94;78.06;98049.27;1709921;83;20978;-81
2022/01/24 02:36:24;;;;;;;18.12;10.70;;;;;;;-5.98;78.30;98043.46;1709700;83;21381;-80
2022/01/24 02:39:29;;;;;;;17.77;11.20;;;;;;;-5.99;78.31;98044.77;1709249;84;21003;-80
2022/01/24 02:49:45;;;;;;;16.57;10.75;;;;;;;-6.08;78.37;98061.00;1685763;85;21024;-80
2022/01/24 02:52:13;;;;;;;15.78;10.28;;;;;;;-6.11;78.37;98060.65;1704738;83;20927;-80
2022/01/24 02:54:40;;;;;;;16.00;11.10;;;;;;;-6.10;78.26;98064.01;1710187;84;20974;-80
2022/01/24 02:57:07;;;;;;;13.48;9.45;;;;;;;-6.13;78.02;98055.23;1710168;84;20947;-80
2022/01/24 02:59:33;;;;;;;13.20;8.85;;;;;;;-6.16;77.86;98053.62;1709990;83;21027;-79
2022/01/24 03:01:58;;;;;;;16.50;10.65;;;;;;;-6.17;77.77;98059.55;1709903;84;21416;-80
2022/01/24 03:04:24;;;;;;;13.80;9.60;;;;;;;-6.14;77.87;98056.11;1709897;84;20966;-80
2022/01/24 03:06:51;;;;;;;14.25;10.53;;;;;;;-6.11;78.03;98060.65;1709298;83;21125;-80
2022/01/24 03:09:17;;;;;;;12.75;9.60;;;;;;;-6.09;78.12;98053.84;1709694;83;21390;-80
2022/01/24 03:14:30;;;;;;;14.95;9.95;;;;;;;-6.09;78.03;98052.58;1709676;82;21019;-80
2022/01/24 03:16:56;;;;;;;14.25;10.35;;;;;;;-6.09;77.92;98050.05;1709578;84;21035;-80
2022/01/24 03:19:21;;;;;;;13.38;8.85;;;;;;;-6.09;77.94;98055.11;1709722;84;21426;-80
2022/01/24 03:21:47;;;;;;;11.48;8.55;;;;;;;-6.07;77.84;98052.54;1709647;82;21022;-80
2022/01/24 03:24:14;;;;;;;12.63;9.25;;;;;;;-6.08;77.86;98055.50;1709588;83;21005;-80
2022/01/24 03:26:40;;;;;;;9.98;8.88;;;;;;;-6.09;77.81;98057.64;1709530;84;20994;-80
2022/01/24 03:29:06;;;;;;;12.47;8.73;;;;;;;-6.12;77.72;98060.25;1709596;83;20971;-80
2022/01/24 03:31:33;;;;;;;12.98;9.33;;;;;;;-6.11;77.81;98061.91;1709660;84;21006;-80
2022/01/24 03:33:59;;;;;;;12.18;8.95;;;;;;;-6.13;77.85;98070.42;1709811;84;21052;-80
2022/01/24 03:36:26;;;;;;;14.43;10.65;;;;;;;-6.17;77.86;98065.87;1710115;83;20958;-81
2022/01/24 03:38:52;;;;;;;12.13;9.33;;;;;;;-6.20;77.88;98076.05;1710074;83;21090;-81
2022/01/24 03:41:17;;;;;;;12.58;9.58;;;;;;;-6.24;77.92;98071.11;1709805;84;21026;-81
2022/01/24 03:43:43;;;;;;;12.47;9.08;;;;;;;-6.28;78.00;98069.09;1710092;84;21005;-81
2022/01/24 03:49:08;;;;;;;11.93;9.20;;;;;;;-6.34;77.97;98077.28;1703957;83;20983;-79
2022/01/24 03:51:23;;;;;;;13.20;9.63;;;;;;;-6.37;78.00;98082.78;1694185;84;21034;-80
2022/01/24 03:53:49;;;;;;;14.07;9.80;;;;;;;-6.38;78.07;98091.67;1697271;84;20991;-80
2022/01/24 03:56:16;;;;;;;12.82;9.15;;;;;;;-6.42;78.02;98096.41;1697581;84;21070;-80
2022/01/24 03:58:43;;;;;;;12.15;8.98;;;;;;;-6.44;78.09;98098.15;1697297;84;20999;-80
2022/01/24 04:01:09;;;;;;;13.40;10.70;;;;;;;-6.43;78.23;98096.84;1697223;84;21464;-80
2022/01/24 04:03:37;;;;;;;15.40;9.35;;;;;;;-6.45;78.13;98091.00;1697281;84;21063;-80
2022/01/24 04:06:04;;;;;;;15.23;10.28;;;;;;;-6.49;78.09;98089.84;1692470;83;21007;-81
2022/01/24 04:08:30;;;;;;;11.28;8.88;;;;;;;-6.50;78.17;98089.02;1685293;84;21046;-81
2022/01/24 04:10:57;;;;;;;11.15;9.20;;;;;;;-6.51;78.20;98089.88;1669044;86;21405;-81
2022/01/24 04:13:32;;;;;;;14.23;9.93;;;;;;;-6.53;78.28;98100.88;1669081;86;20999;-81
2022/01/24 04:21:28;;;;;;;13.22;10.63;;;;;;;-6.58;78.54;98098.45;1669138;86;21370;-80
2022/01/24 04:24:13;;;;;;;12.60;9.65;;;;;;;-6.56;78.58;98099.69;1667983;86;21007;-81
2022/01/24 04:26:21;;;;;;;14.70;9.78;;;;;;;-6.56;78.53;98100.52;1666066;86;21066;-81
2022/01/24 04:28:47;;;;;;;11.70;8.98;;;;;;;-6.53;78.54;98099.17;1669273;85;21083;-81
2022/01/24 04:31:13;;;;;;;11.90;9.13;;;;;;;-6.51;78.52;98092.41;1669033;85;21074;-81
2022/01/24 04:33:39;;;;;;;12.15;8.95;;;;;;;-6.51;78.38;98096.20;1669275;86;20991;-80
2022/01/24 04:36:05;;;;;;;11.75;8.85;;;;;;;-6.52;78.37;98096.21;1669097;85;21055;-81
2022/01/24 04:38:31;;;;;;;12.58;9.33;;;;;;;-6.54;78.40;98100.05;1648103;86;21047;-81
2022/01/24 04:41:01;;;;;;;15.68;9.78;;;;;;;-6.55;78.37;98103.87;1669234;86;21051;-81
2022/01/24 04:43:50;;;;;;;14.78;8.90;;;;;;;-6.58;78.57;98096.37;1668639;86;21033;-80
2022/01/24 04:46:10;;;;;;;13.83;9.48;;;;;;;-6.60;78.49;98092.61;1665127;85;21554;-80
2022/01/24 04:56:07;;;;;;;13.25;9.58;;;;;;;-6.68;78.63;98088.97;1668803;86;21466;-79
2022/01/24 04:58:33;;;;;;;12.18;9.13;;;;;;;-6.69;78.73;98097.42;1668802;85;21067;-79
2022/01/24 05:00:59;;;;;;;14.98;10.00;;;;;;;-6.69;78.76;98096.16;1668869;85;20996;-79
2022/01/24 05:03:24;;;;;;;14.23;10.00;;;;;;;-6.69;78.76;98099.12;1669044;86;21458;-79
2022/01/24 05:05:52;;;;;;;13.45;9.00;;;;;;;-6.71;78.74;98096.63;1674966;83;21015;-79
2022/01/24 05:08:18;;;;;;;10.85;9.58;;;;;;;-6.71;78.77;98092.01;1680712;84;20996;-79
2022/01/24 05:11:04;;;;;;;15.50;10.10;;;;;;;-6.72;78.73;98090.35;1697022;83;20983;-79
2022/01/24 05:24:00;;;;;;;12.18;9.40;;;;;;;-6.81;78.92;98104.04;1696923;83;21007;-81
2022/01/24 05:26:25;;;;;;;11.78;9.53;;;;;;;-6.83;78.91;98109.56;1675138;85;21125;-80
2022/01/24 05:28:51;;;;;;;13.20;10.00;;;;;;;-6.86;78.97;98106.25;1696844;82;21134;-80
2022/01/24 05:31:17;;;;;;;14.75;10.20;;;;;;;-6.87;78.97;98107.11;1696904;82;20984;-80
2022/01/24 05:33:43;;;;;;;12.93;10.05;;;;;;;-6.87;79.18;98107.11;1696975;83;21449;-80
2022/01/24 05:36:08;;;;;;;12.90;9.73;;;;;;;-6.86;79.29;98108.34;1696881;84;20976;-81
2022/01/24 05:38:34;;;;;;;13.70;9.60;;;;;;;-6.85;79.21;98111.70;1697063;84;21040;-81
2022/01/24 05:41:00;;;;;;;11.65;10.25;;;;;;;-6.84;79.15;98115.45;1697189;84;21489;-81
2022/01/24 05:43:26;;;;;;;16.12;10.98;;;;;;;-6.83;79.12;98114.62;1696886;84;21394;-81
2022/01/24 05:45:52;;;;;;;13.65;10.43;;;;;;;-6.81;79.17;98114.58;1694171;83;21051;-80
2022/01/24 05:48:18;;;;;;;13.45;9.48;;;;;;;-6.80;79.02;98102.34;1688713;85;21115;-80
2022/01/24 05:50:43;;;;;;;14.20;9.78;;;;;;;-6.82;78.85;98109.13;1689332;85;21020;-80
2022/01/24 05:53:09;;;;;;;15.15;10.85;;;;;;;-6.82;78.85;98119.24;1689470;85;21359;-80
2022/01/24 05:55:35;;;;;;;14.47;9.73;;;;;;;-6.85;78.79;98116.32;1689157;85;21076;-80
2022/01/24 05:58:01;;;;;;;13.50;9.40;;;;;;;-6.88;78.82;98116.39;1689099;85;20972;-80
2022/01/24 06:00:26;;;;;;;14.28;9.78;;;;;;;-6.90;78.94;98117.29;1689490;85;20965;-80
2022/01/24 06:02:52;;;;;;;13.77;9.93;;;;;;;-6.94;79.09;98123.28;1689116;85;20980;-81
2022/01/24 06:05:18;;;;;;;13.10;9.08;;;;;;;-6.96;79.03;98127.11;1688784;85;21015;-80
2022/01/24 06:07:43;;;;;;;12.20;9.93;;;;;;;-6.99;79.08;98129.27;1668797;85;20980;-80
2022/01/24 06:10:10;;;;;;;12.68;9.60;;;;;;;-7.02;79.12;98131.84;1688469;85;21016;-79
2022/01/24 06:12:35;;;;;;;14.93;10.38;;;;;;;-7.04;79.07;98129.78;1689010;85;21074;-81
2022/01/24 06:15:02;;;;;;;14.05;10.00;;;;;;;-7.05;79.07;98132.34;1689319;85;21477;-81
2022/01/24 06:17:28;;;;;;;13.58;9.48;;;;;;;-7.07;79.09;98128.58;1688999;85;21031;-80
2022/01/24 06:19:54;;;;;;;15.98;10.13;;;;;;;-7.08;79.17;98131.14;1689028;85;21044;-81
2022/01/24 06:22:20;;;;;;;13.43;10.32;;;;;;;-7.06;79.11;98135.73;1689006;85;21051;-81
2022/01/24 06:24:47;;;;;;;12.63;10.60;;;;;;;-7.05;79.13;98144.97;1689172;85;21024;-81
2022/01/24 06:27:12;;;;;;;13.75;9.53;;;;;;;-7.00;79.19;98136.45;1688705;85;21047;-80
2022/01/24 06:29:38;;;;;;;16.12;12.00;;;;;;;-7.00;79.19;98140.25;1689421;85;21010;-80
2022/01/24 06:32:05;;;;;;;13.58;10.48;;;;;;;-6.98;79.24;98144.00;1689292;85;21370;-81
2022/01/24 06:34:31;;;;;;;13.53;10.18;;;;;;;-6.98;79.31;98146.09;1689089;85;21047;-80
2022/01/24 06:36:56;;;;;;;14.43;10.15;;;;;;;-6.98;79.47;98152.84;1689367;85;21426;-80
2022/01/24 06:39:22;;;;;;;13.43;10.90;;;;;;;-6.97;79.44;98151.55;1689321;85;20960;-80
2022/01/24 06:42:04;;;;;;;12.98;10.05;;;;;;;-6.94;79.46;98153.61;1689114;85;20932;-80
2022/01/24 06:44:16;;;;;;;12.70;10.40;;;;;;;-6.91;79.39;98156.06;1684800;85;21367;-80
2022/01/24 06:46:44;;;;;;;17.95;10.10;;;;;;;-6.89;79.36;98157.70;1666803;85;21047;-80
2022/01/24 06:49:09;;;;;;;15.70;10.35;;;;;;;-6.87;79.31;98157.66;1665194;85;21076;-80
2022/01/24 06:51:35;;;;;;;12.90;10.32;;;;;;;-6.86;79.23;98158.06;1691089;84;21138;-81
2022/01/24 06:54:01;;;;;;;13.53;10.38;;;;;;;-6.86;79.05;98159.32;1684873;85;21092;-79
2022/01/24 06:56:27;;;;;;;13.28;10.82;;;;;;;-6.86;79.07;98157.63;1684468;85;21399;-79
2022/01/24 06:58:52;;;;;;;14.25;10.53;;;;;;;-6.85;79.07;98158.02;1684624;85;21059;-79
2022/01/24 07:01:18;;;;;;;15.18;10.63;;;;;;;-6.83;79.11;98155.49;1681831;83;20988;-79
2022/01/24 07:03:44;;;;;;;14.25;10.50;;;;;;;-6.80;79.10;98156.69;1672369;85;21083;-79
2022/01/24 07:06:09;;;;;;;14.40;10.23;;;;;;;-6.79;78.98;98149.50;1657016;86;21066;-79
2022/01/24 07:08:35;;;;;;;15.32;11.45;;;;;;;-6.78;78.99;98155.78;1657350;87;21007;-80
2022/01/24 07:11:01;;;;;;;14.05;9.60;;;;;;;-6.74;78.87;98154.84;1657256;87;21067;-80
2022/01/24 07:13:27;;;;;;;14.23;9.88;;;;;;;-6.68;78.83;98158.94;1656681;86;20981;-80
2022/01/24 07:15:58;;;;;;;16.30;10.43;;;;;;;-6.62;78.93;98164.31;1656692;86;20972;-80
2022/01/24 07:20:57;;;;;;;14.95;9.78;;;;;;;-6.59;78.73;98164.23;1656992;86;21023;-80
2022/01/24 07:23:24;;;;;;;17.32;10.58;;;;;;;-6.58;78.90;98163.38;1657348;86;21024;-81
2022/01/24 07:25:49;;;;;;;15.85;9.65;;;;;;;-6.56;78.82;98167.96;1657258;86;21035;-81
2022/01/24 07:28:15;;;;;;;11.70;9.83;;;;;;;-6.53;78.68;98164.09;1657249;86;21445;-80
2022/01/24 07:30:41;;;;;;;14.03;10.13;;;;;;;-6.53;78.63;98163.66;1657154;87;21042;-80
2022/01/24 07:33:07;;;;;;;16.30;10.35;;;;;;;-6.51;78.60;98170.81;1657135;86;20981;-80
2022/01/24 07:35:33;;;;;;;17.20;11.40;;;;;;;-6.48;78.54;98174.96;1657302;86;21414;-81
2022/01/24 07:37:58;;;;;;;17.07;12.30;;;;;;;-6.44;78.53;98181.61;1657271;87;20981;-80
2022/01/24 07:40:24;;;;;;;17.37;11.30;;;;;;;-6.40;78.48;98173.08;1656657;87;21044;-80
2022/01/24 07:42:53;;;;;;;16.40;11.00;;;;;;;-6.35;78.47;98178.86;1667769;85;21052;-80
2022/01/24 07:45:20;;;;;;;16.25;11.45;;;;;;;-6.32;78.35;98180.52;1684682;85;21371;-79
2022/01/24 07:47:48;;;;;;;18.27;11.10;;;;;;;-6.32;78.22;98177.98;1699493;84;21027;-79
2022/01/24 07:50:16;;;;;;;14.05;10.23;;;;;;;-6.31;78.16;98178.38;1696850;83;21055;-80
2022/01/24 07:52:42;;;;;;;16.05;10.80;;;;;;;-6.25;78.26;98182.03;1696708;84;21099;-80
2022/01/24 07:55:08;;;;;;;14.15;10.68;;;;;;;-6.20;78.20;98188.63;1696622;83;21446;-80
2022/01/24 07:57:34;;;;;;;15.90;10.28;;;;;;;-6.16;78.11;98185.19;1696669;83;21047;-80
2022/01/24 08:00:00;;;;;;;15.28;10.60;;;;;;;-6.10;78.07;98188.00;1696576;84;21004;-80
2022/01/24 08:02:25;;;;;;;13.68;10.60;;;;;;;-6.07;77.97;98187.49;1696761;83;21003;-80
2022/01/24 08:04:51;;;;;;;14.20;9.35;;;;;;;-6.02;78.04;98190.34;1696751;83;21003;-81
2022/01/24 08:07:17;;;;;;;12.30;9.78;;;;;;;-5.96;78.06;98191.48;1697742;83;20971;-80
2022/01/24 08:09:43;;;;;;;13.50;10.15;;;;;;;-5.92;78.01;98192.63;1697298;84;21454;-81
2022/01/24 08:12:09;;;;;;;15.90;10.80;;;;;;;-5.87;77.93;98193.75;1697315;84;20948;-81
2022/01/24 08:14:35;;;;;;;16.77;10.72;;;;;;;-5.85;77.66;98197.10;1698112;84;20968;-81
2022/01/24 08:17:02;;;;;;;14.03;10.93;;;;;;;-5.80;77.50;98197.81;1697216;84;20991;-80
2022/01/24 08:19:28;;;;;;;14.38;9.73;;;;;;;-5.75;77.43;98194.73;1696818;83;20979;-80
2022/01/24 08:21:56;;;;;;;12.68;9.15;;;;;;;-5.71;77.41;98191.24;1696865;83;21040;-80
2022/01/24 08:24:24;;;;;;;11.65;9.08;;;;;;;-5.65;77.28;98194.08;1697094;82;21089;-81
2022/01/24 08:26:49;;;;;;;11.85;8.90;;;;;;;-5.62;77.18;98203.69;1697373;83;21111;-81
2022/01/24 08:29:15;;;;;;;13.45;9.50;;;;;;;-5.56;77.19;98207.76;1697886;83;21031;-81
2022/01/24 08:31:41;;;;;;;12.78;9.60;;;;;;;-5.45;77.20;98210.87;1698125;84;21015;-79
2022/01/24 08:34:06;;;;;;;10.68;8.95;;;;;;;-5.38;77.08;98217.42;1697232;84;21438;-81
2022/01/24 08:36:33;;;;;;;13.70;9.83;;;;;;;-5.34;76.85;98215.67;1695365;83;20980;-81
2022/01/24 08:39:06;;;;;;;15.75;9.55;;;;;;;-5.29;76.68;98219.73;1680777;84;21007;-81
2022/01/24 08:41:39;;;;;;;16.67;11.25;;;;;;;-5.28;76.60;98215.50;1695957;84;21059;-79
2022/01/24 08:44:11;;;;;;;14.03;10.63;;;;;;;-5.30;76.48;98218.08;1693247;84;20996;-79
2022/01/24 08:46:26;;;;;;;11.50;10.23;;;;;;;-5.30;76.45;98218.52;1689871;83;21024;-79
2022/01/24 08:48:52;;;;;;;15.60;10.10;;;;;;;-5.26;76.47;98213.75;1686518;85;21264;-79
2022/01/24 08:51:18;;;;;;;14.07;9.80;;;;;;;-5.30;76.23;98210.48;1686616;85;21039;-79
2022/01/24 08:53:43;;;;;;;14.13;10.80;;;;;;;-5.29;76.28;98208.34;1688136;85;21019;-79
2022/01/24 08:56:11;;;;;;;15.13;11.08;;;;;;;-5.30;76.17;98207.94;1689360;84;21031;-79
2022/01/24 08:58:36;;;;;;;14.55;11.12;;;;;;;-5.31;76.11;98206.72;1688839;85;21032;-81
2022/01/24 09:01:02;;;;;;;15.80;11.05;;;;;;;-5.32;76.00;98207.59;1689174;85;21358;-81
2022/01/24 09:03:29;;;;;;;15.85;10.25;;;;;;;-5.33;76.13;98213.53;1688886;85;20960;-81
2022/01/24 09:05:59;;;;;;;14.13;10.30;;;;;;;-5.37;76.24;98213.19;1688885;85;21434;-81
2022/01/24 09:08:25;;;;;;;14.93;9.95;;;;;;;-5.33;76.27;98205.49;1688609;85;21116;-80
2022/01/24 09:10:52;;;;;;;14.33;9.40;;;;;;;-5.28;76.20;98199.03;1688467;85;21126;-80
2022/01/24 09:13:19;;;;;;;12.68;9.73;;;;;;;-5.22;76.15;98207.73;1688883;85;21104;-81
2022/01/24 09:15:45;;;;;;;12.68;10.45;;;;;;;-5.17;76.18;98204.22;1689094;85;21083;-81
2022/01/24 09:18:11;;;;;;;14.58;9.85;;;;;;;-5.11;76.18;98201.95;1689151;85;21067;-81
2022/01/24 09:20:40;;;;;;;14.00;9.93;;;;;;;-5.00;76.19;98204.20;1689269;85;21087;-80
2022/01/24 09:23:07;;;;;;;14.65;9.33;;;;;;;-4.87;76.14;98206.37;1688993;85;21276;-80
2022/01/24 09:25:33;;;;;;;15.08;9.95;;;;;;;-4.72;76.26;98201.72;1689219;85;21015;-80
2022/01/24 09:27:58;;;;;;;14.98;10.95;;;;;;;-4.65;75.89;98198.98;1689046;85;21016;-80
2022/01/24 09:30:24;;;;;;;14.68;10.48;;;;;;;-4.58;75.65;98207.23;1688391;85;21004;-80
2022/01/24 09:32:50;;;;;;;13.98;9.73;;;;;;;-4.50;75.62;98207.86;1689042;85;21010;-80
2022/01/24 09:35:17;;;;;;;14.38;9.80;;;;;;;-4.41;75.53;98203.77;1688352;85;20984;-80
2022/01/24 09:37:43;;;;;;;14.95;12.00;;;;;;;-4.31;75.62;98209.41;1685853;83;20999;-80
2022/01/24 09:40:12;;;;;;;16.55;10.98;;;;;;;-4.18;75.64;98208.61;1689136;85;21112;-80
2022/01/24 09:42:37;;;;;;;16.05;9.85;;;;;;;-4.04;75.87;98204.78;1688853;85;21386;-80
2022/01/24 09:45:04;;;;;;;15.93;11.18;;;;;;;-3.87;75.61;98207.23;1669317;85;20980;-80
2022/01/24 09:47:30;;;;;;;15.18;10.15;;;;;;;-3.77;75.34;98206.87;1686493;85;21055;-80
2022/01/24 09:49:56;;;;;;;15.45;10.98;;;;;;;-3.67;75.18;98197.25;1660258;85;21064;-80
2022/01/24 09:52:21;;;;;;;14.00;9.43;;;;;;;-3.52;75.50;98196.76;1684764;85;21095;-79
2022/01/24 09:54:47;;;;;;;15.18;11.85;;;;;;;-3.42;75.27;98189.23;1706599;84;21346;-80
2022/01/24 09:57:13;;;;;;;17.10;10.58;;;;;;;-3.35;74.82;98184.75;1709220;84;21044;-80
2022/01/24 09:59:39;;;;;;;16.15;10.95;;;;;;;-3.27;74.65;98193.38;1709563;83;20962;-80
2022/01/24 10:02:04;;;;;;;16.60;10.80;;;;;;;-3.20;74.12;98188.48;1709711;84;21417;-80
2022/01/24 10:04:31;;;;;;;13.90;10.28;;;;;;;-3.15;74.18;98193.80;1709780;83;21058;-79
2022/01/24 10:07:13;;;;;;;13.85;10.18;;;;;;;-3.11;74.07;98193.23;1709654;84;21042;-79
2022/01/24 10:09:44;;;;;;;12.98;9.18;;;;;;;-2.99;74.29;98192.81;1709752;84;20974;-80
2022/01/24 10:17:47;;;;;;;25.15;16.32;;;;;;;-2.63;73.86;98184.74;1709931;84;21066;-81
2022/01/24 10:20:22;;;;;;;23.42;14.53;;;;;;;-2.56;73.58;98187.02;1709699;84;21034;-80
2022/01/24 10:23:24;;;;;;;29.87;18.42;;;;;;;-2.48;73.60;98182.91;1709579;84;21014;-80
2022/01/24 10:25:59;;;;;;;71.33;42.17;;;;;;;-2.33;73.82;98184.05;1654111;84;21346;-80
2022/01/24 10:28:36;;;;;;;83.67;47.58;;;;;;;-2.20;73.54;98183.97;1709417;83;21018;-80
2022/01/24 10:31:09;;;;;;;77.50;43.78;;;;;;;-2.00;73.86;98185.30;1709986;84;21058;-80
2022/01/24 10:34:07;;;;;;;82.12;51.02;;;;;;;-1.84;73.56;98181.25;1709565;83;21026;-80
2022/01/24 10:36:45;;;;;;;82.33;47.80;;;;;;;-1.75;73.26;98185.16;1717618;82;21023;-79
2022/01/24 10:39:53;;;;;;;86.57;50.90;;;;;;;-1.52;73.33;98167.64;1694361;84;20978;-81
2022/01/24 10:44:59;;;;;;;69.72;39.92;;;;;;;-1.02;72.88;98167.23;1709566;84;20966;-79
2022/01/24 10:47:29;;;;;;;82.15;46.92;;;;;;;-0.81;72.73;98155.27;1701077;83;21032;-79
2022/01/24 10:49:55;;;;;;;88.47;50.85;;;;;;;-0.68;72.42;98154.63;1694641;84;21482;-79
2022/01/24 10:52:27;;;;;;;94.42;56.40;;;;;;;-0.58;71.68;98157.61;1684259;85;21015;-79
2022/01/24 10:54:56;;;;;;;;;;;;;;;-0.64;71.48;98149.79;1689060;85;21312;-80
2022/01/24 10:57:26;;;;;;;87.12;52.33;;;;;;;-0.62;71.25;98142.05;1684488;85;20348;-80
2022/01/24 11:00:05;;;;;;;87.88;53.65;;;;;;;-0.68;70.88;98145.69;1684700;85;21101;-80
2022/01/24 11:02:41;;;;;;;91.50;52.80;;;;;;;-0.64;71.21;98134.47;1684781;84;20997;-81
2022/01/24 11:05:16;;;;;;;96.50;56.23;;;;;;;-0.54;71.29;98125.09;1684854;85;21373;-81
2022/01/24 11:07:57;;;;;;;84.22;48.42;;;;;;;-0.40;71.08;98132.95;1684190;85;21099;-80
2022/01/24 11:10:27;;;;;;;90.17;50.80;;;;;;;-0.39;70.33;98132.88;1684211;85;21153;-80
2022/01/24 11:12:53;;;;;;;82.30;50.10;;;;;;;-0.31;70.88;98130.81;1684381;85;21041;-80
2022/01/24 11:15:22;;;;;;;75.50;45.95;;;;;;;-0.17;70.71;98125.03;1684271;85;21510;-80
2022/01/24 11:17:48;;;;;;;145.00;78.33;;;;;;;-0.10;69.68;98128.96;1684012;85;21430;-80
2022/01/24 11:20:17;;;;;;;137.85;77.67;;;;;;;-0.06;69.70;98134.75;1684429;85;20999;-80
2022/01/24 11:22:44;;;;;;;236.05;130.35;;;;;;;0.02;69.92;98126.73;1684623;85;21023;-80
2022/01/24 11:25:12;;;;;;;150.80;101.22;;;;;;;0.14;70.08;98124.84;1684706;85;21390;-80
2022/01/24 11:27:39;;;;;;;91.20;56.68;;;;;;;0.19;69.69;98122.91;1684707;85;21080;-80
2022/01/24 11:30:13;;;;;;;68.92;41.92;;;;;;;0.22;69.66;98117.19;1684601;85;21071;-81
2022/01/24 11:32:54;;;;;;;70.57;41.75;;;;;;;0.21;69.01;98115.53;1683886;85;21012;-80
2022/01/24 11:35:44;;;;;;;66.47;38.45;;;;;;;0.14;68.58;98109.05;1684450;84;20953;-80
2022/01/24 11:38:42;;;;;;;66.02;41.37;;;;;;;0.09;68.27;98108.45;1665663;85;21012;-80
2022/01/24 11:41:26;;;;;;;63.65;38.83;;;;;;;0.02;68.23;98105.02;1657114;87;21439;-81
2022/01/24 11:43:59;;;;;;;56.65;33.78;;;;;;;0.02;67.72;98113.95;1657075;86;21127;-81
2022/01/24 11:46:47;;;;;;;66.72;41.15;;;;;;;-0.09;67.25;98103.78;1656565;86;21055;-80
2022/01/24 11:49:21;;;;;;;55.48;33.63;;;;;;;-0.13;68.04;98107.84;1656640;86;21442;-80
2022/01/24 11:51:50;;;;;;;68.50;39.88;;;;;;;-0.01;67.29;98112.34;1656507;86;21023;-80
2022/01/24 11:54:47;;;;;;;71.72;43.60;;;;;;;-0.02;68.04;98101.75;1657000;87;21016;-80
2022/01/24 11:57:24;;;;;;;71.85;41.18;;;;;;;0.14;68.69;98101.38;1651915;86;21116;-80
2022/01/24 12:00:05;;;;;;;64.12;40.30;;;;;;;0.37;68.69;98098.16;1656961;87;21764;-80
2022/01/24 12:02:52;;;;;;;59.38;35.10;;;;;;;0.41;67.91;98096.64;1655865;87;21075;-80
2022/01/24 12:05:43;;;;;;;57.88;35.10;;;;;;;0.41;67.51;98103.03;1656915;87;21023;-80
2022/01/24 12:08:12;;;;;;;40.95;24.60;;;;;;;0.35;67.52;98099.52;1656993;87;22090;-80
2022/01/24 12:10:43;;;;;;;51.23;29.80;;;;;;;0.27;66.98;98100.33;1656719;87;21015;-80
2022/01/24 12:13:20;;;;;;;51.42;32.03;;;;;;;0.16;66.69;98101.30;1656697;87;20994;-80
2022/01/24 12:15:56;;;;;;;45.83;30.45;;;;;;;0.11;67.05;98104.09;1656777;86;21012;-80
2022/01/24 12:18:33;;;;;;;35.68;23.12;;;;;;;0.09;67.11;98101.24;1657032;87;21016;-81
2022/01/24 12:21:09;;;;;;;51.48;31.37;;;;;;;0.03;66.43;98106.66;1657265;86;21023;-80
2022/01/24 12:23:42;;;;;;;54.38;33.95;;;;;;;-0.22;66.37;98105.72;1657120;86;20976;-80
2022/01/24 12:26:11;;;;;;;54.33;32.95;;;;;;;-0.26;66.70;98105.05;1656965;87;21060;-80
2022/01/24 12:28:48;;;;;;;62.25;37.33;;;;;;;-0.25;67.14;98103.31;1656994;87;21094;-80
2022/01/24 12:31:34;;;;;;;59.18;35.85;;;;;;;-0.24;66.93;98098.58;1655899;86;21454;-80
2022/01/24 12:34:10;;;;;;;58.63;34.75;;;;;;;-0.28;66.90;98098.36;1656967;86;21040;-80
2022/01/24 12:37:00;;;;;;;64.10;35.60;;;;;;;-0.31;66.98;98105.72;1656763;86;21114;-80
2022/01/24 12:39:24;;;;;;;59.77;35.33;;;;;;;-0.40;66.61;98097.20;1655942;86;20997;-80
2022/01/24 12:41:59;;;;;;;55.95;34.38;;;;;;;-0.38;67.16;98097.95;1656713;87;21501;-80
2022/01/24 12:47:20;;;;;;;71.28;41.55;;;;;;;-0.27;67.47;98085.51;1658088;86;21391;-80
2022/01/24 12:49:47;;;;;;;74.87;44.25;;;;;;;-0.16;67.97;98076.06;1684916;85;21001;-80
2022/01/24 12:52:15;;;;;;;77.03;44.23;;;;;;;-0.16;67.64;98074.78;1681192;85;21970;-80
2022/01/24 12:54:47;;;;;;;72.50;42.40;;;;;;;-0.20;67.53;98075.36;1681162;85;20986;-80
2022/01/24 12:57:16;;;;;;;67.42;42.30;;;;;;;-0.29;66.89;98078.38;1679752;84;21009;-80
2022/01/24 13:00:01;;;;;;;67.37;42.00;;;;;;;-0.35;67.52;98081.20;1681078;85;21088;-81
2022/01/24 13:02:29;;;;;;;66.57;40.43;;;;;;;-0.37;67.97;98084.28;1657807;84;21026;-80
2022/01/24 13:05:06;;;;;;;67.35;39.18;;;;;;;-0.37;68.15;98080.00;1709529;84;20990;-80
2022/01/24 13:07:32;;;;;;;64.07;36.95;;;;;;;-0.35;67.93;98088.41;1701300;82;21360;-80
2022/01/24 13:10:08;;;;;;;65.25;38.15;;;;;;;-0.40;67.85;98091.64;1696838;84;21006;-80
2022/01/24 13:12:36;;;;;;;69.55;39.60;;;;;;;-0.35;68.07;98096.52;1684442;84;21044;-80
2022/01/24 13:15:05;;;;;;;63.33;39.60;;;;;;;-0.29;67.95;98098.81;1709549;84;21050;-80